Time;durP1;ratioP1;P1;durP2;ratioP2;P2;SDS_P1;SDS_P2;PMS_P1;PMS_P2;Temp;Humidity;BMP_temperature;BMP_pressure;BME280_temperature;BME280_humidity;BME280_pressure;Samples;Min_cycle;Max_cycle;Signal;HPM_P1;HPM_P2
2022/04/02 00:01:28;;;;;;;5.60;4.00;;;;;;;0.28;78.10;100895.00;6240478;22;20004;-72
2022/04/02 00:03:54;;;;;;;6.35;3.78;;;;;;;0.24;78.67;100899.91;6219295;22;20438;-71
2022/04/02 00:06:19;;;;;;;4.70;3.30;;;;;;;0.25;78.58;100908.81;6217900;22;20008;-72
2022/04/02 00:08:45;;;;;;;4.53;3.83;;;;;;;0.20;79.06;100897.78;6271194;22;20011;-73
2022/04/02 00:11:10;;;;;;;6.60;3.67;;;;;;;0.17;79.62;100899.81;6273292;22;20011;-72
2022/04/02 00:13:36;;;;;;;4.07;2.75;;;;;;;0.14;79.63;100900.19;6244675;22;20007;-72
2022/04/02 00:16:02;;;;;;;4.40;2.60;;;;;;;0.12;78.91;100896.03;6245482;22;20406;-72
2022/04/02 00:18:30;;;;;;;5.18;2.97;;;;;;;0.08;79.04;100902.78;6243985;22;20012;-71
2022/04/02 00:20:56;;;;;;;4.20;2.80;;;;;;;0.04;79.12;100899.63;6273852;22;20426;-73
2022/04/02 00:23:40;;;;;;;2.10;1.90;;;;;;;0.06;79.02;100897.59;6218834;22;20008;-73
2022/04/02 00:26:07;;;;;;;4.57;2.42;;;;;;;0.04;78.09;100915.75;6248408;22;20328;-71
2022/04/02 00:28:35;;;;;;;4.45;2.40;;;;;;;0.01;78.60;100916.13;6245911;22;20004;-71
2022/04/02 00:31:00;;;;;;;5.60;2.60;;;;;;;-0.04;78.75;100905.94;6240795;22;20022;-72
2022/04/02 00:33:27;;;;;;;5.55;3.05;;;;;;;-0.06;79.49;100908.00;6220234;22;20012;-72
2022/04/02 00:35:53;;;;;;;5.68;2.92;;;;;;;-0.14;78.66;100901.84;6219860;22;20057;-71
2022/04/02 00:38:19;;;;;;;6.78;3.33;;;;;;;-0.12;79.03;100910.56;6271632;22;20079;-72
2022/04/02 00:40:44;;;;;;;4.25;2.72;;;;;;;-0.08;80.11;100918.06;6273190;22;20030;-72
2022/04/02 00:43:26;;;;;;;2.75;2.40;;;;;;;-0.11;79.56;100918.44;6267136;22;20011;-72
2022/04/02 00:45:53;;;;;;;6.75;3.03;;;;;;;-0.13;79.21;100908.88;6240952;22;20012;-72
2022/04/02 00:48:20;;;;;;;3.92;2.95;;;;;;;-0.16;80.13;100906.56;6270158;22;20011;-73
2022/04/02 00:50:47;;;;;;;4.00;2.70;;;;;;;-0.19;79.31;100908.63;6271526;22;20038;-71
2022/04/02 00:53:14;;;;;;;3.72;2.38;;;;;;;-0.24;78.71;100900.25;6241564;22;20011;-71
2022/04/02 00:55:41;;;;;;;3.15;1.88;;;;;;;-0.27;79.04;100899.78;6242681;22;20513;-71
2022/04/02 00:58:08;;;;;;;3.17;2.05;;;;;;;-0.30;79.51;100897.47;6272110;22;20003;-71
2022/04/02 01:00:34;;;;;;;2.55;1.95;;;;;;;-0.36;79.72;100893.66;6240201;22;20012;-72
2022/04/02 01:03:00;;;;;;;4.88;2.17;;;;;;;-0.34;79.05;100906.91;6219520;22;20790;-71
2022/04/02 01:05:26;;;;;;;2.70;2.20;;;;;;;-0.34;79.41;100906.91;6272511;22;20014;-72
2022/04/02 01:07:53;;;;;;;3.15;2.10;;;;;;;-0.33;80.25;100903.22;6268049;22;20077;-71
2022/04/02 01:10:18;;;;;;;4.50;2.25;;;;;;;-0.31;79.15;100907.38;6218583;22;20027;-71
2022/04/02 01:12:45;;;;;;;2.85;2.05;;;;;;;-0.36;79.58;100907.94;6269905;22;20310;-71
2022/04/02 01:15:10;;;;;;;3.50;1.92;;;;;;;-0.38;80.15;100890.31;6269929;22;20031;-70
2022/04/02 01:17:40;;;;;;;3.72;2.53;;;;;;;-0.35;79.18;100895.34;6268398;22;20307;-75
2022/04/02 01:20:08;;;;;;;4.20;2.70;;;;;;;-0.36;79.52;100891.81;6234206;22;19995;-74
2022/04/02 01:22:34;;;;;;;3.10;2.20;;;;;;;-0.32;79.64;100902.19;6261430;22;20095;-74
2022/04/02 01:24:59;;;;;;;3.20;2.33;;;;;;;-0.34;79.60;100902.38;6263214;22;20007;-74
2022/04/02 01:27:25;;;;;;;3.90;2.58;;;;;;;-0.37;80.06;100891.97;6258186;22;20008;-74
2022/04/02 01:29:50;;;;;;;3.13;2.80;;;;;;;-0.37;79.83;100900.03;6287913;22;20055;-74
2022/04/02 01:32:16;;;;;;;4.38;2.97;;;;;;;-0.41;80.64;100896.06;6229873;22;20107;-75
2022/04/02 01:34:41;;;;;;;4.32;2.33;;;;;;;-0.41;80.61;100896.91;6218426;23;20016;-73
2022/04/02 01:37:07;;;;;;;3.13;2.33;;;;;;;-0.42;80.95;100895.22;6241505;23;20083;-75
2022/04/02 01:39:32;;;;;;;4.88;2.80;;;;;;;-0.44;80.07;100885.66;6212439;23;20331;-74
2022/04/02 01:41:57;;;;;;;2.95;2.28;;;;;;;-0.45;80.46;100890.22;6238434;23;20015;-73
2022/04/02 01:44:23;;;;;;;5.22;3.00;;;;;;;-0.44;81.34;100885.66;6236148;22;20020;-73
2022/04/02 01:46:48;;;;;;;4.88;3.10;;;;;;;-0.46;80.32;100887.72;6239912;23;20087;-74
2022/04/02 01:49:14;;;;;;;3.25;2.20;;;;;;;-0.48;81.47;100887.91;6236226;23;20008;-73
2022/04/02 01:51:39;;;;;;;3.92;2.58;;;;;;;-0.47;80.56;100891.41;6238040;23;20109;-73
2022/04/02 01:54:04;;;;;;;4.00;2.58;;;;;;;-0.49;81.17;100888.91;6240147;23;20004;-72
2022/04/02 01:56:34;;;;;;;5.22;2.90;;;;;;;-0.50;80.63;100887.22;6242705;23;20474;-72
2022/04/02 01:58:59;;;;;;;4.95;2.60;;;;;;;-0.54;81.47;100881.41;6192534;23;20008;-74
2022/04/02 02:01:25;;;;;;;3.88;2.33;;;;;;;-0.56;80.55;100880.72;6215115;23;20012;-72
2022/04/02 02:03:50;;;;;;;9.65;3.95;;;;;;;-0.60;81.29;100876.75;6247585;23;20067;-73
2022/04/02 02:06:15;;;;;;;7.03;3.70;;;;;;;-0.57;81.16;100887.13;6251800;23;20058;-72
2022/04/02 02:08:41;;;;;;;5.80;4.38;;;;;;;-0.59;81.17;100878.41;6244927;23;20012;-72
2022/04/02 02:11:06;;;;;;;5.30;3.72;;;;;;;-0.63;81.92;100877.09;6214458;23;20008;-73
2022/04/02 02:13:32;;;;;;;6.03;3.90;;;;;;;-0.69;81.69;100877.81;6215153;23;20032;-75
2022/04/02 02:15:57;;;;;;;6.45;4.38;;;;;;;-0.71;82.17;100880.69;6191350;23;20439;-73
2022/04/02 02:18:22;;;;;;;5.32;3.50;;;;;;;-0.76;81.66;100882.25;6217326;23;20014;-72
2022/04/02 02:20:48;;;;;;;4.32;2.63;;;;;;;-0.77;81.93;100880.59;6217606;23;20580;-74
2022/04/02 02:23:14;;;;;;;5.88;3.85;;;;;;;-0.80;81.84;100872.91;6243964;23;20004;-73
2022/04/02 02:25:39;;;;;;;6.68;3.38;;;;;;;-0.76;81.82;100876.88;6214721;23;20008;-74
2022/04/02 02:28:05;;;;;;;5.32;2.95;;;;;;;-0.79;82.20;100877.22;6217080;23;20066;-74
2022/04/02 02:30:30;;;;;;;5.68;3.15;;;;;;;-0.79;82.83;100882.59;6243986;22;20399;-72
2022/04/02 02:35:52;;;;;;;4.57;2.63;;;;;;;-0.83;82.06;100881.28;6252521;22;20031;-73
2022/04/02 02:38:21;;;;;;;3.80;2.58;;;;;;;-0.83;82.18;100881.28;6271746;22;20010;-74
2022/04/02 02:40:49;;;;;;;4.38;2.90;;;;;;;-0.85;82.25;100884.16;6275237;22;20330;-74
2022/04/02 02:43:15;;;;;;;9.45;3.13;;;;;;;-0.85;82.39;100884.16;6273597;22;20010;-74
2022/04/02 02:45:41;;;;;;;5.15;3.50;;;;;;;-0.84;82.84;100876.97;6246788;22;20019;-75
2022/04/02 02:48:07;;;;;;;11.13;4.32;;;;;;;-0.81;82.42;100879.28;6272981;22;20073;-75
2022/04/02 02:50:33;;;;;;;5.43;3.17;;;;;;;-0.85;82.56;100877.97;6246727;22;20093;-74
2022/04/02 02:52:58;;;;;;;5.85;2.60;;;;;;;-0.84;81.96;100877.78;6246595;22;20414;-73
2022/04/02 02:55:24;;;;;;;4.50;2.55;;;;;;;-0.86;82.64;100876.28;6216782;22;20072;-73
2022/04/02 02:57:49;;;;;;;4.82;2.67;;;;;;;-0.90;82.75;100876.66;6241988;22;20465;-76
2022/04/02 03:00:19;;;;;;;4.97;3.13;;;;;;;-0.85;81.95;100883.34;6249006;22;20004;-74
2022/04/02 03:02:44;;;;;;;5.20;2.90;;;;;;;-0.88;82.87;100880.00;6252860;22;20026;-75
2022/04/02 03:05:11;;;;;;;6.18;3.25;;;;;;;-0.86;82.11;100884.34;6264029;22;20016;-74
2022/04/02 03:07:48;;;;;;;5.57;2.90;;;;;;;-0.92;82.59;100877.84;6293050;22;20003;-75
2022/04/02 03:10:18;;;;;;;4.60;2.95;;;;;;;-0.92;82.05;100889.44;6293392;22;20043;-75
2022/04/02 03:12:46;;;;;;;5.82;2.90;;;;;;;-0.99;82.37;100877.72;6294097;22;20018;-74
2022/04/02 03:15:12;;;;;;;3.08;2.42;;;;;;;-0.95;82.76;100884.41;6287419;22;20011;-74
2022/04/02 03:17:38;;;;;;;6.55;2.33;;;;;;;-0.95;82.06;100884.41;6243108;22;20018;-74
2022/04/02 03:20:05;;;;;;;3.42;2.53;;;;;;;-0.97;82.09;100881.06;6277717;22;20019;-73
2022/04/02 03:22:35;;;;;;;4.43;3.10;;;;;;;-1.02;82.46;100877.22;6249722;22;20011;-74
2022/04/02 03:25:01;;;;;;;5.50;3.00;;;;;;;-1.00;82.42;100883.28;6274343;22;20304;-74
2022/04/02 03:27:27;;;;;;;4.82;3.30;;;;;;;-1.05;82.79;100883.81;6248163;22;20011;-73
2022/04/02 03:29:52;;;;;;;4.07;3.33;;;;;;;-1.02;82.82;100888.81;6275350;22;20018;-73
2022/04/02 03:32:18;;;;;;;7.90;4.22;;;;;;;-1.02;83.23;100887.97;6274362;22;20023;-73
2022/04/02 03:34:43;;;;;;;6.00;3.80;;;;;;;-1.02;82.74;100888.81;6246664;22;19999;-73
2022/04/02 03:37:09;;;;;;;6.25;3.38;;;;;;;-1.08;83.14;100876.94;6268584;22;20031;-73
2022/04/02 03:39:35;;;;;;;5.13;3.70;;;;;;;-1.06;83.23;100885.66;6217244;22;20339;-73
2022/04/02 03:42:01;;;;;;;9.30;3.90;;;;;;;-1.08;82.69;100884.16;6220244;22;20016;-74
2022/04/02 03:44:27;;;;;;;5.22;3.78;;;;;;;-1.10;83.59;100891.56;6270861;22;20012;-73
2022/04/02 03:47:10;;;;;;;6.57;4.25;;;;;;;-1.15;83.47;100885.91;6245271;22;20306;-73
2022/04/02 03:49:41;;;;;;;9.45;4.65;;;;;;;-1.16;83.68;100889.59;6272099;22;20406;-73
2022/04/02 03:52:08;;;;;;;9.23;5.15;;;;;;;-1.20;83.84;100885.59;6273511;22;20007;-73
2022/04/02 03:54:39;;;;;;;10.82;6.00;;;;;;;-1.20;83.97;100893.63;6271825;22;20433;-74
2022/04/02 03:57:06;;;;;;;8.43;5.85;;;;;;;-1.26;84.39;100892.50;6244814;22;20008;-73
2022/04/02 03:59:32;;;;;;;10.30;5.80;;;;;;;-1.30;84.26;100891.16;6245329;22;20094;-73
2022/04/02 04:01:59;;;;;;;9.07;5.65;;;;;;;-1.37;84.86;100888.38;6243699;22;20003;-73
2022/04/02 04:04:25;;;;;;;10.80;6.30;;;;;;;-1.38;84.80;100893.91;6246590;22;20039;-74
2022/04/02 04:06:52;;;;;;;8.98;5.85;;;;;;;-1.43;85.03;100899.78;6244575;22;20012;-73
2022/04/02 04:09:18;;;;;;;11.68;5.95;;;;;;;-1.45;85.15;100889.22;6270737;22;20346;-74
2022/04/02 04:11:44;;;;;;;10.50;6.53;;;;;;;-1.45;85.19;100894.59;6273054;22;20074;-74
2022/04/02 04:14:09;;;;;;;10.52;6.53;;;;;;;-1.40;85.57;100891.41;6271635;22;20031;-73
2022/04/02 04:16:35;;;;;;;9.18;5.63;;;;;;;-1.42;85.56;100888.06;6271165;22;20001;-74
2022/04/02 04:19:01;;;;;;;7.68;5.68;;;;;;;-1.41;85.61;100889.72;6270624;22;20400;-74
2022/04/02 04:21:26;;;;;;;12.45;7.00;;;;;;;-1.42;85.94;100893.41;6245862;22;20105;-75
2022/04/02 04:23:51;;;;;;;10.35;6.53;;;;;;;-1.46;85.93;100886.72;6245327;22;20007;-74
2022/04/02 04:26:17;;;;;;;11.38;6.95;;;;;;;-1.43;86.55;100889.06;6223456;22;20019;-75
2022/04/02 04:28:43;;;;;;;10.65;7.15;;;;;;;-1.42;86.42;100888.06;6275421;22;20034;-74
2022/04/02 04:31:09;;;;;;;16.55;7.10;;;;;;;-1.46;86.64;100889.41;6278314;22;20091;-75
2022/04/02 04:33:35;;;;;;;10.82;6.22;;;;;;;-1.48;86.94;100894.13;6274202;22;20026;-74
2022/04/02 04:36:02;;;;;;;11.90;6.97;;;;;;;-1.52;86.24;100893.66;6272886;22;20068;-75
2022/04/02 04:38:27;;;;;;;10.48;6.38;;;;;;;-1.56;86.63;100886.09;6273564;22;20011;-74
2022/04/02 04:40:53;;;;;;;9.70;5.70;;;;;;;-1.62;86.87;100888.50;6246020;22;20007;-74
2022/04/02 04:43:18;;;;;;;10.52;6.07;;;;;;;-1.64;86.96;100895.03;6271708;22;20011;-74
2022/04/02 04:45:44;;;;;;;9.88;6.03;;;;;;;-1.64;86.54;100895.03;6271818;22;20004;-73
2022/04/02 04:48:09;;;;;;;13.15;7.50;;;;;;;-1.63;87.08;100896.72;6243481;22;20019;-74
2022/04/02 04:50:35;;;;;;;10.07;6.30;;;;;;;-1.67;86.79;100893.53;6243400;22;20018;-73
2022/04/02 04:53:02;;;;;;;13.75;7.03;;;;;;;-1.67;86.88;100890.84;6244683;22;20015;-74
2022/04/02 04:55:27;;;;;;;14.43;8.07;;;;;;;-1.67;86.90;100890.84;6269411;22;20071;-73
2022/04/02 04:57:53;;;;;;;12.48;7.28;;;;;;;-1.68;86.68;100899.06;6245335;22;20090;-73
2022/04/02 05:00:18;;;;;;;13.75;7.05;;;;;;;-1.73;87.21;100890.72;6218983;22;20089;-72
2022/04/02 05:02:44;;;;;;;10.73;6.68;;;;;;;-1.70;87.11;100896.56;6244036;22;20010;-72
2022/04/02 05:05:12;;;;;;;13.82;6.90;;;;;;;-1.67;87.26;100912.31;6243484;22;20087;-72
2022/04/02 05:07:38;;;;;;;10.15;7.03;;;;;;;-1.69;87.34;100908.97;6271566;22;20000;-72
2022/04/02 05:10:04;;;;;;;12.80;7.28;;;;;;;-1.65;87.11;100907.63;6272257;22;20736;-72
2022/04/02 05:12:31;;;;;;;12.98;7.32;;;;;;;-1.63;87.33;100918.16;6271708;22;20000;-73
2022/04/02 05:14:57;;;;;;;13.23;7.55;;;;;;;-1.64;86.93;100909.25;6241693;22;20027;-73
2022/04/02 05:17:22;;;;;;;11.82;7.72;;;;;;;-1.59;87.65;100914.97;6270663;22;20415;-73
2022/04/02 05:19:48;;;;;;;15.95;8.25;;;;;;;-1.56;87.34;100918.28;6273793;22;20464;-76
2022/04/02 05:22:14;;;;;;;12.75;8.35;;;;;;;-1.56;87.30;100924.50;6270289;22;20007;-73
2022/04/02 05:24:39;;;;;;;13.32;7.53;;;;;;;-1.60;86.99;100917.81;6269755;22;20026;-73
2022/04/02 05:27:04;;;;;;;16.80;8.55;;;;;;;-1.63;87.54;100910.94;6244612;22;20019;-73
2022/04/02 05:29:30;;;;;;;16.67;8.25;;;;;;;-1.63;87.33;100919.00;6217999;22;20004;-72
2022/04/02 05:31:56;;;;;;;14.68;8.65;;;;;;;-1.66;87.30;100921.19;6244174;22;20094;-73
2022/04/02 05:34:21;;;;;;;12.98;8.27;;;;;;;-1.72;87.81;100917.38;6245407;22;20019;-73
2022/04/02 05:36:47;;;;;;;14.55;8.60;;;;;;;-1.72;87.58;100917.38;6274186;22;20054;-75
2022/04/02 05:39:12;;;;;;;14.27;8.35;;;;;;;-1.66;87.96;100927.38;6247367;22;20014;-73
2022/04/02 05:41:38;;;;;;;13.02;8.40;;;;;;;-1.63;87.83;100935.09;6244824;22;20053;-72
2022/04/02 05:44:06;;;;;;;15.15;8.70;;;;;;;-1.61;87.61;100932.22;6272189;22;20007;-73
2022/04/02 05:46:32;;;;;;;12.15;7.43;;;;;;;-1.62;87.93;100931.41;6275970;22;20414;-73
2022/04/02 05:48:58;;;;;;;14.30;8.40;;;;;;;-1.61;87.19;100933.09;6243392;22;20004;-73
2022/04/02 05:51:23;;;;;;;12.77;7.47;;;;;;;-1.58;87.31;100931.88;6269774;22;20015;-72
2022/04/02 05:53:49;;;;;;;13.25;7.60;;;;;;;-1.55;87.09;100936.06;6242630;22;20018;-72
2022/04/02 05:56:14;;;;;;;10.43;6.07;;;;;;;-1.52;86.86;100935.72;6268579;22;20031;-73
2022/04/02 05:58:41;;;;;;;7.28;4.28;;;;;;;-1.46;86.74;100945.75;6270111;22;20356;-72
2022/04/02 06:01:07;;;;;;;5.25;3.72;;;;;;;-1.37;87.08;100944.72;6267153;22;20010;-74
2022/04/02 06:03:33;;;;;;;7.70;4.38;;;;;;;-1.28;86.31;100938.28;6219866;22;20007;-73
2022/04/02 06:05:58;;;;;;;7.35;5.38;;;;;;;-1.16;87.02;100941.41;6271003;22;20008;-74
2022/04/02 06:08:24;;;;;;;8.80;4.82;;;;;;;-1.02;86.74;100933.59;6245681;22;20537;-73
2022/04/02 06:10:49;;;;;;;5.50;4.20;;;;;;;-0.79;85.91;100941.69;6243095;22;20031;-73
2022/04/02 06:13:15;;;;;;;9.20;5.38;;;;;;;-0.55;86.23;100952.25;6268476;22;20011;-72
2022/04/02 06:15:40;;;;;;;8.50;5.88;;;;;;;-0.35;84.95;100938.34;6241551;22;20007;-73
2022/04/02 06:18:07;;;;;;;8.65;4.88;;;;;;;-0.12;84.48;100942.81;6269096;22;20010;-73
2022/04/02 06:20:32;;;;;;;7.40;5.30;;;;;;;0.11;84.33;100946.28;6217385;22;20011;-71
2022/04/02 06:22:59;;;;;;;8.52;5.40;;;;;;;0.33;83.15;100951.78;6269833;22;20083;-73
2022/04/02 06:25:24;;;;;;;7.00;5.00;;;;;;;0.50;82.94;100947.88;6238434;22;20011;-73
2022/04/02 06:27:49;;;;;;;10.93;6.72;;;;;;;0.68;82.69;100952.03;6218788;22;20009;-74
2022/04/02 06:30:19;;;;;;;7.57;5.65;;;;;;;0.83;82.17;100950.16;6244564;22;20022;-74
2022/04/02 06:32:44;;;;;;;11.98;7.00;;;;;;;1.00;82.28;100955.31;6269739;22;20057;-74
2022/04/02 06:35:11;;;;;;;10.90;6.55;;;;;;;1.17;81.52;100954.06;6219138;22;20497;-76
2022/04/02 06:37:39;;;;;;;9.52;6.25;;;;;;;1.30;81.13;100947.13;6216325;22;20012;-70
2022/04/02 06:40:05;;;;;;;11.95;7.63;;;;;;;1.48;80.23;100952.06;6237512;22;20414;-71
2022/04/02 06:42:31;;;;;;;10.35;6.18;;;;;;;1.69;79.69;100967.38;6271437;22;20025;-72
2022/04/02 06:44:57;;;;;;;11.30;7.00;;;;;;;1.86;80.28;100967.97;6272425;22;20007;-71
2022/04/02 06:47:30;;;;;;;12.43;9.18;;;;;;;1.98;79.28;100970.94;6272145;22;20060;-70
2022/04/02 06:49:56;;;;;;;13.68;8.85;;;;;;;2.11;78.40;100975.63;6243571;22;20004;-70
2022/04/02 06:52:22;;;;;;;10.68;7.07;;;;;;;2.22;78.89;100973.22;6242193;22;20437;-72
2022/04/02 06:54:48;;;;;;;11.50;7.63;;;;;;;2.30;78.38;100980.31;6270583;22;19999;-73
2022/04/02 06:57:20;;;;;;;10.32;7.15;;;;;;;2.44;77.49;100981.25;6272362;22;20007;-72
2022/04/02 06:59:46;;;;;;;9.88;6.18;;;;;;;2.60;77.33;100991.72;6272626;22;20008;-72
2022/04/02 07:02:13;;;;;;;13.43;7.90;;;;;;;2.72;76.98;100988.44;6272469;22;20381;-75
2022/04/02 07:04:38;;;;;;;12.57;8.70;;;;;;;2.88;76.71;100981.88;6219680;22;20008;-72
2022/04/02 07:07:04;;;;;;;12.30;6.38;;;;;;;3.03;76.26;100984.44;6246805;22;20003;-73
2022/04/02 07:09:29;;;;;;;10.23;7.53;;;;;;;3.11;75.92;100982.38;6273639;22;20134;-73
2022/04/02 07:11:55;;;;;;;8.70;6.43;;;;;;;3.26;75.30;100979.50;6244979;22;20011;-73
2022/04/02 07:14:21;;;;;;;10.60;7.28;;;;;;;3.32;74.42;100980.56;6219941;22;20385;-72
2022/04/02 07:16:49;;;;;;;12.18;7.43;;;;;;;3.48;74.38;100998.28;6242812;22;20039;-81
2022/04/02 07:19:30;;;;;;;7.70;5.57;;;;;;;3.65;74.32;100991.44;6200698;22;20007;-80
2022/04/02 07:22:04;;;;;;;9.27;5.60;;;;;;;3.77;74.01;100997.06;6248929;22;20010;-80
2022/04/02 07:24:31;;;;;;;13.35;7.63;;;;;;;3.84;73.35;100986.22;6222189;22;20014;-83
2022/04/02 07:26:57;;;;;;;15.18;8.68;;;;;;;4.04;73.06;100999.78;6248339;22;20014;-76
2022/04/02 07:29:27;;;;;;;10.15;7.97;;;;;;;4.17;72.38;101007.06;6246298;22;20374;-81
2022/04/02 07:31:52;;;;;;;16.85;8.60;;;;;;;4.09;71.58;100993.72;6274925;22;20011;-76
2022/04/02 07:34:28;;;;;;;;;;;;;;;;;;;;;
2022/04/02 07:37:25;;;;;;;8.63;5.75;;;;;;;4.30;71.63;101007.03;6270356;22;20410;-77
2022/04/02 07:40:06;;;;;;;9.50;5.32;;;;;;;4.27;71.31;100980.38;6245922;22;20053;-77
2022/04/02 07:43:20;;;;;;;;;;;;;;;;;;;;;
2022/04/02 07:46:01;;;;;;;11.73;7.83;;;;;;;4.51;70.33;101010.53;6273153;22;20509;-77
2022/04/02 07:48:38;;;;;;;17.70;7.40;;;;;;;4.50;70.01;101006.19;6275190;22;20283;-76
2022/04/02 07:51:12;;;;;;;14.25;8.65;;;;;;;4.58;69.47;101000.53;6245688;22;20035;-76
2022/04/02 07:53:49;;;;;;;14.55;8.57;;;;;;;4.75;69.09;101009.03;6273031;22;20022;-78
2022/04/02 07:56:48;;;;;;;16.00;7.35;;;;;;;4.87;69.12;101023.56;6246545;22;20026;-78
2022/04/02 07:59:22;;;;;;;13.48;7.75;;;;;;;5.10;68.46;101021.44;6235938;22;20006;-77
2022/04/02 08:01:50;;;;;;;12.13;7.47;;;;;;;5.46;67.54;101031.69;6244674;22;20474;-75
2022/04/02 08:04:19;;;;;;;14.63;8.20;;;;;;;5.68;66.39;101024.03;6220923;22;20434;-76
2022/04/02 08:06:49;;;;;;;10.45;6.47;;;;;;;5.66;66.09;101025.31;6275046;22;20000;-75
2022/04/02 08:09:15;;;;;;;12.77;8.18;;;;;;;5.47;66.37;101019.78;6228724;22;20064;-77
2022/04/02 08:11:42;;;;;;;15.38;8.05;;;;;;;5.64;66.48;101038.28;6251952;22;20091;-75
2022/04/02 08:14:08;;;;;;;17.58;8.95;;;;;;;6.69;64.96;101040.34;6259636;22;20004;-75
2022/04/02 08:16:42;;;;;;;16.92;8.32;;;;;;;8.38;58.90;101038.66;6262618;22;19999;-74
2022/04/02 08:19:09;;;;;;;10.95;7.63;;;;;;;10.47;54.64;101047.66;6236294;22;20508;-76
2022/04/02 08:21:34;;;;;;;10.20;6.63;;;;;;;12.70;48.74;101047.03;6249963;22;20003;-75
2022/04/02 08:24:01;;;;;;;13.10;7.70;;;;;;;14.65;44.31;101046.66;6223374;22;20007;-74
2022/04/02 08:26:44;;;;;;;10.98;7.57;;;;;;;16.30;40.25;101056.03;6273944;22;20085;-75
2022/04/02 08:29:32;;;;;;;8.23;6.13;;;;;;;17.89;38.00;101050.59;6248849;22;20011;-75
2022/04/02 08:32:37;;;;;;;11.90;6.95;;;;;;;17.45;35.90;101067.25;6274054;22;20366;-75
2022/04/02 08:35:03;;;;;;;9.82;6.72;;;;;;;15.48;38.79;101068.44;6244784;22;20007;-76
2022/04/02 08:37:39;;;;;;;7.18;5.28;;;;;;;14.56;40.98;101041.97;6273034;22;20003;-76
2022/04/02 08:40:23;;;;;;;9.38;5.90;;;;;;;16.73;39.15;101069.97;6272668;22;20622;-77
2022/04/02 08:43:03;;;;;;;7.57;4.90;;;;;;;17.86;36.54;101065.84;6246467;22;20069;-76
2022/04/02 08:45:58;;;;;;;7.93;4.80;;;;;;;17.70;36.78;101056.94;6273259;22;20004;-77
2022/04/02 08:48:28;;;;;;;8.55;4.70;;;;;;;18.18;34.62;101055.97;6245357;22;20010;-76
2022/04/02 08:51:50;;;;;;;6.05;3.83;;;;;;;19.98;33.30;101082.91;6273910;22;20000;-77
2022/04/02 08:54:27;;;;;;;8.18;4.93;;;;;;;20.99;30.43;101052.00;6247540;22;20010;-77
2022/04/02 08:57:00;;;;;;;5.60;3.83;;;;;;;20.63;30.87;101039.06;6246402;22;20075;-76
2022/04/02 09:00:04;;;;;;;7.65;4.20;;;;;;;21.84;29.51;101080.69;6244151;22;20000;-77
2022/04/02 09:02:41;;;;;;;6.15;3.05;;;;;;;23.57;27.96;101076.94;6273445;22;19999;-77
2022/04/02 09:05:22;;;;;;;6.75;3.38;;;;;;;25.93;25.56;101071.47;6272262;22;20079;-76
2022/04/02 09:08:28;;;;;;;;;;;;;;;;;;;;;
2022/04/02 09:11:31;;;;;;;5.38;3.45;;;;;;;29.95;19.21;101088.88;6271920;22;20087;-77
2022/04/02 09:14:14;;;;;;;4.03;2.90;;;;;;;30.67;18.61;101060.69;6271564;22;20007;-77
2022/04/02 09:17:04;;;;;;;4.45;2.17;;;;;;;31.75;18.33;101087.72;6247215;22;20427;-76
2022/04/02 09:19:37;;;;;;;5.68;3.13;;;;;;;31.53;17.57;101071.81;6279246;22;20031;-77
2022/04/02 09:22:15;;;;;;;2.80;2.35;;;;;;;31.64;17.33;101078.38;6250689;22;20015;-78
2022/04/02 09:25:02;;;;;;;5.53;3.22;;;;;;;31.38;16.25;101097.16;6247461;22;20010;-77
2022/04/02 09:27:43;;;;;;;3.38;2.35;;;;;;;31.31;16.94;101092.28;6248963;22;20008;-77
2022/04/02 09:30:38;;;;;;;4.20;2.50;;;;;;;32.93;16.67;101100.63;6235647;22;20007;-77
2022/04/02 09:33:40;;;;;;;3.35;1.88;;;;;;;34.04;15.65;101093.13;6227393;22;20554;-77
2022/04/02 09:36:36;;;;;;;6.35;3.13;;;;;;;33.92;15.37;101100.06;6219517;23;20411;-76
2022/04/02 09:39:28;;;;;;;5.05;3.20;;;;;;;32.94;15.26;101073.09;6216942;23;20011;-77
2022/04/02 09:42:26;;;;;;;3.38;2.28;;;;;;;32.55;15.26;101094.50;6218618;23;20379;-76
2022/04/02 09:45:13;;;;;;;3.35;2.30;;;;;;;31.45;16.00;101091.56;6189299;23;20012;-76
2022/04/02 09:47:58;;;;;;;;;;;;;;;;;;;;;
2022/04/02 09:50:27;;;;;;;7.28;3.72;;;;;;;27.79;17.54;101074.66;6243681;23;20552;-76
2022/04/02 09:53:07;;;;;;;5.53;3.03;;;;;;;27.25;18.95;101090.25;6215320;23;20004;-76
2022/04/02 09:55:51;;;;;;;4.18;2.25;;;;;;;27.68;18.46;101076.41;6215449;23;20087;-76
2022/04/02 09:58:35;;;;;;;4.47;3.30;;;;;;;24.78;18.73;101085.44;6213317;23;20390;-78
2022/04/02 10:01:09;;;;;;;5.13;2.43;;;;;;;21.78;22.60;101072.50;6242526;23;20011;-78
2022/04/02 10:03:34;;;;;;;5.18;2.08;;;;;;;21.29;23.29;101066.19;6213092;23;20252;-76
2022/04/02 10:06:35;;;;;;;1.92;1.13;;;;;;;24.55;22.01;101065.44;6243263;23;19996;-77
2022/04/02 10:09:09;;;;;;;6.28;1.10;;;;;;;27.71;17.08;101043.97;6152570;23;20005;-77
2022/04/02 10:11:50;;;;;;;3.65;0.90;;;;;;;26.73;18.40;101052.06;6201104;23;20086;-76
2022/04/02 10:14:32;;;;;;;;;;;;;;;;;;;;;
2022/04/02 10:17:08;;;;;;;1.17;0.73;;;;;;;34.09;13.48;101062.28;6243640;23;20087;-77
2022/04/02 10:19:42;;;;;;;1.63;0.80;;;;;;;35.12;12.45;101086.78;6213962;23;20474;-77
2022/04/02 10:22:35;;;;;;;;;;;;;;;;;;;;;
2022/04/02 10:25:18;;;;;;;;;;;;;;;;;;;;;
2022/04/02 10:27:44;;;;;;;1.42;0.70;;;;;;;32.64;12.37;101057.28;6243337;23;20384;-78
2022/04/02 10:30:12;;;;;;;1.15;0.70;;;;;;;30.49;13.40;101072.59;6244815;23;20027;-78
2022/04/02 10:32:54;;;;;;;2.28;0.65;;;;;;;30.28;14.04;101067.50;6260495;22;20015;-77
2022/04/02 10:35:25;;;;;;;1.38;0.68;;;;;;;29.52;14.58;101054.47;6246765;22;20000;-77
2022/04/02 10:38:09;;;;;;;1.80;0.90;;;;;;;27.90;14.94;101040.34;6242819;22;20442;-77
2022/04/02 10:41:16;;;;;;;1.23;0.80;;;;;;;27.60;15.60;101061.41;6246561;22;20380;-77
2022/04/02 10:44:18;;;;;;;1.67;0.63;;;;;;;30.32;13.62;101047.81;6232334;22;20034;-78
2022/04/02 10:46:58;;;;;;;;;;;;;;;;;;;;;
2022/04/02 10:49:44;;;;;;;4.82;0.80;;;;;;;35.51;11.68;101045.75;6274698;22;20434;-76
2022/04/02 10:52:13;;;;;;;1.55;0.80;;;;;;;35.21;11.02;101072.88;6273155;22;20057;-76
2022/04/02 10:54:49;;;;;;;1.92;0.47;;;;;;;33.65;11.60;101065.72;6271704;22;20441;-77
2022/04/02 10:57:23;;;;;;;0.93;0.50;;;;;;;35.44;11.24;101071.44;6272942;22;20000;-77
2022/04/02 11:00:07;;;;;;;0.68;0.47;;;;;;;38.27;10.09;101043.56;6280328;22;19999;-78
2022/04/02 11:02:44;;;;;;;1.38;0.70;;;;;;;41.07;8.11;101062.50;6248827;22;20064;-78
2022/04/02 11:05:17;;;;;;;1.15;0.50;;;;;;;42.35;7.33;101055.25;6248398;22;20004;-78
2022/04/02 11:07:51;;;;;;;1.40;0.63;;;;;;;39.15;8.45;101061.00;6270925;22;20462;-81
2022/04/02 11:10:19;;;;;;;1.40;0.50;;;;;;;38.06;9.14;101065.63;6244027;22;20035;-77
2022/04/02 11:12:52;;;;;;;0.85;0.40;;;;;;;41.20;7.91;101065.34;6244227;22;20468;-78
2022/04/02 11:15:24;;;;;;;;;;;;;;;44.17;6.19;101073.50;6275129;22;19996;-79
2022/04/02 11:17:58;;;;;;;1.55;0.50;;;;;;;45.61;6.16;101066.16;6220753;22;19907;-78
2022/04/02 11:20:43;;;;;;;;;;;;;;;;;;;;;
2022/04/02 11:23:20;;;;;;;0.88;0.45;;;;;;;37.67;7.71;101045.22;6274026;22;20914;-77
2022/04/02 11:25:54;;;;;;;1.50;0.70;;;;;;;32.59;10.03;101047.16;6246603;22;20334;-77
2022/04/02 11:28:24;;;;;;;1.05;0.60;;;;;;;31.89;11.38;101035.25;6246435;22;20057;-76
2022/04/02 11:31:05;;;;;;;1.48;0.70;;;;;;;33.80;10.25;101052.31;6221102;22;20018;-78
2022/04/02 11:33:50;;;;;;;1.48;0.88;;;;;;;32.31;11.16;101042.28;6247408;22;20663;-77
2022/04/02 11:36:24;;;;;;;1.67;0.57;;;;;;;33.48;10.76;101051.16;6244810;22;20482;-77
2022/04/02 11:38:58;;;;;;;1.88;0.73;;;;;;;36.72;9.43;101040.88;6248221;22;20040;-78
2022/04/02 11:41:32;;;;;;;3.10;0.65;;;;;;;40.14;7.47;101047.94;6246706;22;20065;-78
2022/04/02 11:44:04;;;;;;;2.55;1.02;;;;;;;43.33;6.47;101064.22;6246649;22;20030;-78
2022/04/02 11:47:15;;;;;;;1.63;0.70;;;;;;;45.13;5.59;101060.50;6246001;22;20008;-78
2022/04/02 11:49:43;;;;;;;0.70;0.40;;;;;;;46.24;4.56;101042.03;6232962;22;20055;-77
2022/04/02 11:52:11;;;;;;;1.70;0.65;;;;;;;47.56;4.30;101060.53;6223210;22;20007;-77
2022/04/02 11:55:07;;;;;;;;;;;;;;;;;;;;;
2022/04/02 11:57:43;;;;;;;;;;;;;;;;;;;;;
2022/04/02 12:00:15;;;;;;;5.75;0.70;;;;;;;40.64;5.81;101047.56;6253353;22;20079;-78
2022/04/02 12:02:51;;;;;;;0.90;0.60;;;;;;;35.46;7.71;101038.50;6247379;22;20335;-78